Impacts TAF Board INFO
FOR SITUATIONAL AWARENESS. NOT TO BE USED FOR FLIGHT PLANNING PURPOSES.
IDs:

KJFK - New York/Kennedy Int, NY, US

Issued at 0542 UTC 17 Dec 2017
Updated at 0801 UTC 17 Dec 2017
Potential Impact None Slight Moderate High
Time<<18/08Z 18/09Z 18/10Z 18/11Z 18/12Z 18/13Z 18/14Z 18/15Z 18/16Z 18/17Z 18/18Z 18/19Z 18/20Z
Type PRVL PRVL PRVL PRVL
VIS >6 >6 >6 >6
CIG 35 35 35 35
Cover BKN BKN BKN BKN
FltCat VFR VFR VFR VFR
WX -- -- -- --
WDir VRB VRB VRB VRB
WSpd 3 3 3 3
WGst -- -- -- --

Raw TAF
KJFK 170542Z 1706/1812 35008KT P6SM BKN045
  FM170700 36007KT P6SM SCT045
  FM171600 VRB05KT P6SM BKN070 BKN250
  FM180100 VRB03KT P6SM BKN035


METAR Board
Radar Display
Forecast Discussion

FOR SITUATIONAL AWARENESS. NOT TO BE USED FOR FLIGHT PLANNING PURPOSES.